sensor_id;sensor_type;location;lat;lon;timestamp;temperature;humidity
65460;DHT22;52058;49.822;6.754;2023-02-28T00:00:00;-2.42;84.79
65460;DHT22;52058;49.822;6.754;2023-02-28T00:02:33;-2.45;84.76
65460;DHT22;52058;49.822;6.754;2023-02-28T00:05:00;-2.52;84.83
65460;DHT22;52058;49.822;6.754;2023-02-28T00:07:28;-2.52;85.07
65460;DHT22;52058;49.822;6.754;2023-02-28T00:09:55;-2.56;85.20
65460;DHT22;52058;49.822;6.754;2023-02-28T00:12:23;-2.57;85.34
65460;DHT22;52058;49.822;6.754;2023-02-28T00:14:51;-2.64;85.35
65460;DHT22;52058;49.822;6.754;2023-02-28T00:17:18;-2.64;85.47
65460;DHT22;52058;49.822;6.754;2023-02-28T00:19:46;-2.70;85.56
65460;DHT22;52058;49.822;6.754;2023-02-28T00:22:13;-2.72;85.76
65460;DHT22;52058;49.822;6.754;2023-02-28T00:24:40;-2.74;86.11
65460;DHT22;52058;49.822;6.754;2023-02-28T00:27:06;-2.76;85.95
65460;DHT22;52058;49.822;6.754;2023-02-28T00:29:34;-2.79;86.03
65460;DHT22;52058;49.822;6.754;2023-02-28T00:32:01;-2.79;86.09
65460;DHT22;52058;49.822;6.754;2023-02-28T00:34:28;-2.86;86.07
65460;DHT22;52058;49.822;6.754;2023-02-28T00:36:55;-2.87;86.38
65460;DHT22;52058;49.822;6.754;2023-02-28T00:39:21;-2.88;86.55
65460;DHT22;52058;49.822;6.754;2023-02-28T00:41:48;-2.88;86.66
65460;DHT22;52058;49.822;6.754;2023-02-28T00:44:15;-2.93;86.93
65460;DHT22;52058;49.822;6.754;2023-02-28T00:46:43;-2.91;87.01
65460;DHT22;52058;49.822;6.754;2023-02-28T00:49:09;-2.94;87.17
65460;DHT22;52058;49.822;6.754;2023-02-28T00:51:36;-2.91;87.22
65460;DHT22;52058;49.822;6.754;2023-02-28T00:54:03;-2.95;87.31
65460;DHT22;52058;49.822;6.754;2023-02-28T00:56:29;-3.00;87.48
65460;DHT22;52058;49.822;6.754;2023-02-28T00:58:56;-3.03;87.67
65460;DHT22;52058;49.822;6.754;2023-02-28T01:01:22;-2.98;87.93
65460;DHT22;52058;49.822;6.754;2023-02-28T01:03:50;-3.01;88.02
65460;DHT22;52058;49.822;6.754;2023-02-28T01:06:17;-3.03;87.97
65460;DHT22;52058;49.822;6.754;2023-02-28T01:08:44;-3.07;88.20
65460;DHT22;52058;49.822;6.754;2023-02-28T01:11:12;-3.05;88.47
65460;DHT22;52058;49.822;6.754;2023-02-28T01:13:39;-3.03;88.41
65460;DHT22;52058;49.822;6.754;2023-02-28T01:16:06;-3.05;88.34
65460;DHT22;52058;49.822;6.754;2023-02-28T01:18:33;-3.05;88.34
65460;DHT22;52058;49.822;6.754;2023-02-28T01:21:04;-3.12;88.30
65460;DHT22;52058;49.822;6.754;2023-02-28T01:23:31;-3.11;88.38
65460;DHT22;52058;49.822;6.754;2023-02-28T01:26:03;-3.15;88.50
65460;DHT22;52058;49.822;6.754;2023-02-28T01:28:30;-3.21;88.55
65460;DHT22;52058;49.822;6.754;2023-02-28T01:30:57;-3.21;88.77
65460;DHT22;52058;49.822;6.754;2023-02-28T01:33:24;-3.25;88.82
65460;DHT22;52058;49.822;6.754;2023-02-28T01:35:57;-3.28;88.96
65460;DHT22;52058;49.822;6.754;2023-02-28T01:38:25;-3.27;88.96
65460;DHT22;52058;49.822;6.754;2023-02-28T01:40:52;-3.28;89.03
65460;DHT22;52058;49.822;6.754;2023-02-28T01:43:22;-3.31;88.99
65460;DHT22;52058;49.822;6.754;2023-02-28T01:45:49;-3.34;89.05
65460;DHT22;52058;49.822;6.754;2023-02-28T01:48:16;-3.35;89.18
65460;DHT22;52058;49.822;6.754;2023-02-28T01:50:46;-3.36;89.52
65460;DHT22;52058;49.822;6.754;2023-02-28T01:53:16;-3.39;89.80
65460;DHT22;52058;49.822;6.754;2023-02-28T01:55:48;-3.32;90.21
65460;DHT22;52058;49.822;6.754;2023-02-28T01:58:17;-3.35;89.95
65460;DHT22;52058;49.822;6.754;2023-02-28T02:00:44;-3.35;90.23
65460;DHT22;52058;49.822;6.754;2023-02-28T02:03:13;-3.34;90.36
65460;DHT22;52058;49.822;6.754;2023-02-28T02:05:41;-3.34;90.36
65460;DHT22;52058;49.822;6.754;2023-02-28T02:08:16;-3.35;90.22
65460;DHT22;52058;49.822;6.754;2023-02-28T02:10:46;-3.32;90.22
65460;DHT22;52058;49.822;6.754;2023-02-28T02:13:27;-3.35;90.23
65460;DHT22;52058;49.822;6.754;2023-02-28T02:16:04;-3.39;90.14
65460;DHT22;52058;49.822;6.754;2023-02-28T02:18:38;-3.45;90.02
65460;DHT22;52058;49.822;6.754;2023-02-28T02:21:37;-3.48;89.94
65460;DHT22;52058;49.822;6.754;2023-02-28T02:27:20;-3.59;89.89
65460;DHT22;52058;49.822;6.754;2023-02-28T02:33:06;-3.67;90.34
65460;DHT22;52058;49.822;6.754;2023-02-28T02:35:43;-3.65;90.51
65460;DHT22;52058;49.822;6.754;2023-02-28T02:38:18;-3.69;90.76
65460;DHT22;52058;49.822;6.754;2023-02-28T02:40:53;-3.70;90.82
65460;DHT22;52058;49.822;6.754;2023-02-28T02:43:25;-3.72;90.88
65460;DHT22;52058;49.822;6.754;2023-02-28T02:45:55;-3.70;90.98
65460;DHT22;52058;49.822;6.754;2023-02-28T02:48:25;-3.69;90.98
65460;DHT22;52058;49.822;6.754;2023-02-28T02:50:55;-3.67;91.00
65460;DHT22;52058;49.822;6.754;2023-02-28T02:53:26;-3.72;90.91
65460;DHT22;52058;49.822;6.754;2023-02-28T02:55:55;-3.73;90.96
65460;DHT22;52058;49.822;6.754;2023-02-28T02:58:26;-3.76;90.91
65460;DHT22;52058;49.822;6.754;2023-02-28T03:00:57;-3.77;91.10
65460;DHT22;52058;49.822;6.754;2023-02-28T03:03:25;-3.80;91.03
65460;DHT22;52058;49.822;6.754;2023-02-28T03:05:57;-3.84;91.21
65460;DHT22;52058;49.822;6.754;2023-02-28T03:08:24;-3.86;91.09
65460;DHT22;52058;49.822;6.754;2023-02-28T03:10:52;-3.87;91.12
65460;DHT22;52058;49.822;6.754;2023-02-28T03:13:51;-3.91;91.31
65460;DHT22;52058;49.822;6.754;2023-02-28T03:16:41;-3.96;91.18
65460;DHT22;52058;49.822;6.754;2023-02-28T03:19:22;-3.96;91.61
65460;DHT22;52058;49.822;6.754;2023-02-28T03:21:59;-3.94;91.54
65460;DHT22;52058;49.822;6.754;2023-02-28T03:24:33;-3.96;91.85
65460;DHT22;52058;49.822;6.754;2023-02-28T03:27:06;-3.90;92.47
65460;DHT22;52058;49.822;6.754;2023-02-28T03:29:35;-3.82;92.70
65460;DHT22;52058;49.822;6.754;2023-02-28T03:32:07;-3.74;92.70
65460;DHT22;52058;49.822;6.754;2023-02-28T03:34:42;-3.72;92.62
65460;DHT22;52058;49.822;6.754;2023-02-28T03:37:15;-3.74;92.55
65460;DHT22;52058;49.822;6.754;2023-02-28T03:39:45;-3.76;92.45
65460;DHT22;52058;49.822;6.754;2023-02-28T03:42:15;-3.82;92.37
65460;DHT22;52058;49.822;6.754;2023-02-28T03:44:46;-3.79;92.42
65460;DHT22;52058;49.822;6.754;2023-02-28T03:47:16;-3.80;92.42
65460;DHT22;52058;49.822;6.754;2023-02-28T03:49:47;-3.76;92.51
65460;DHT22;52058;49.822;6.754;2023-02-28T03:52:18;-3.72;92.72
65460;DHT22;52058;49.822;6.754;2023-02-28T03:54:48;-3.70;92.77
65460;DHT22;52058;49.822;6.754;2023-02-28T03:57:23;-3.73;92.80
65460;DHT22;52058;49.822;6.754;2023-02-28T03:59:55;-3.70;92.85
65460;DHT22;52058;49.822;6.754;2023-02-28T04:02:22;-3.70;92.83
65460;DHT22;52058;49.822;6.754;2023-02-28T04:04:49;-3.67;92.87
65460;DHT22;52058;49.822;6.754;2023-02-28T04:07:18;-3.67;93.10
65460;DHT22;52058;49.822;6.754;2023-02-28T04:09:45;-3.60;93.47
65460;DHT22;52058;49.822;6.754;2023-02-28T04:12:11;-3.56;93.44
65460;DHT22;52058;49.822;6.754;2023-02-28T04:14:38;-3.60;93.26
65460;DHT22;52058;49.822;6.754;2023-02-28T04:17:04;-3.58;93.41
65460;DHT22;52058;49.822;6.754;2023-02-28T04:19:31;-3.62;93.38
65460;DHT22;52058;49.822;6.754;2023-02-28T04:21:57;-3.65;93.40
65460;DHT22;52058;49.822;6.754;2023-02-28T04:24:27;-3.65;93.73
65460;DHT22;52058;49.822;6.754;2023-02-28T04:26:56;-3.63;93.88
65460;DHT22;52058;49.822;6.754;2023-02-28T04:29:24;-3.65;93.98
65460;DHT22;52058;49.822;6.754;2023-02-28T04:31:51;-3.63;94.13
65460;DHT22;52058;49.822;6.754;2023-02-28T04:34:19;-3.55;94.48
65460;DHT22;52058;49.822;6.754;2023-02-28T04:36:46;-3.38;94.98
65460;DHT22;52058;49.822;6.754;2023-02-28T04:39:14;-3.46;94.64
65460;DHT22;52058;49.822;6.754;2023-02-28T04:41:42;-3.46;94.56
65460;DHT22;52058;49.822;6.754;2023-02-28T04:44:08;-3.44;94.71
65460;DHT22;52058;49.822;6.754;2023-02-28T04:46:35;-3.42;94.84
65460;DHT22;52058;49.822;6.754;2023-02-28T04:49:01;-3.44;94.70
65460;DHT22;52058;49.822;6.754;2023-02-28T04:51:28;-3.38;95.01
65460;DHT22;52058;49.822;6.754;2023-02-28T04:53:55;-3.35;95.01
65460;DHT22;52058;49.822;6.754;2023-02-28T04:56:21;-3.34;94.97
65460;DHT22;52058;49.822;6.754;2023-02-28T04:58:49;-3.36;94.85
65460;DHT22;52058;49.822;6.754;2023-02-28T05:01:21;-3.38;94.82
65460;DHT22;52058;49.822;6.754;2023-02-28T05:03:48;-3.42;94.81
65460;DHT22;52058;49.822;6.754;2023-02-28T05:06:15;-3.38;95.03
65460;DHT22;52058;49.822;6.754;2023-02-28T05:08:42;-3.42;94.87
65460;DHT22;52058;49.822;6.754;2023-02-28T05:11:14;-3.35;95.18
65460;DHT22;52058;49.822;6.754;2023-02-28T05:13:41;-3.35;95.16
65460;DHT22;52058;49.822;6.754;2023-02-28T05:16:09;-3.35;95.12
65460;DHT22;52058;49.822;6.754;2023-02-28T05:18:36;-3.36;95.07
65460;DHT22;52058;49.822;6.754;2023-02-28T05:21:02;-3.42;94.99
65460;DHT22;52058;49.822;6.754;2023-02-28T05:23:29;-3.42;94.82
65460;DHT22;52058;49.822;6.754;2023-02-28T05:25:56;-3.49;94.75
65460;DHT22;52058;49.822;6.754;2023-02-28T05:28:22;-3.46;95.05
65460;DHT22;52058;49.822;6.754;2023-02-28T05:30:49;-3.45;94.99
65460;DHT22;52058;49.822;6.754;2023-02-28T05:33:17;-3.52;94.94
65460;DHT22;52058;49.822;6.754;2023-02-28T05:35:43;-3.51;94.97
65460;DHT22;52058;49.822;6.754;2023-02-28T05:38:10;-3.46;95.39
65460;DHT22;52058;49.822;6.754;2023-02-28T05:40:38;-3.48;95.25
65460;DHT22;52058;49.822;6.754;2023-02-28T05:43:04;-3.46;95.28
65460;DHT22;52058;49.822;6.754;2023-02-28T05:45:31;-3.52;95.22
65460;DHT22;52058;49.822;6.754;2023-02-28T05:47:58;-3.59;95.20
65460;DHT22;52058;49.822;6.754;2023-02-28T05:50:26;-3.51;95.36
65460;DHT22;52058;49.822;6.754;2023-02-28T05:52:52;-3.55;95.21
65460;DHT22;52058;49.822;6.754;2023-02-28T05:55:19;-3.58;95.18
65460;DHT22;52058;49.822;6.754;2023-02-28T05:57:45;-3.53;95.44
65460;DHT22;52058;49.822;6.754;2023-02-28T06:00:13;-3.51;95.53
65460;DHT22;52058;49.822;6.754;2023-02-28T06:02:40;-3.53;95.49
65460;DHT22;52058;49.822;6.754;2023-02-28T06:05:12;-3.55;95.42
65460;DHT22;52058;49.822;6.754;2023-02-28T06:07:41;-3.59;95.25
65460;DHT22;52058;49.822;6.754;2023-02-28T06:10:08;-3.63;95.10
65460;DHT22;52058;49.822;6.754;2023-02-28T06:12:35;-3.66;95.14
65460;DHT22;52058;49.822;6.754;2023-02-28T06:15:01;-3.69;95.14
65460;DHT22;52058;49.822;6.754;2023-02-28T06:17:28;-3.70;95.13
65460;DHT22;52058;49.822;6.754;2023-02-28T06:19:55;-3.72;95.11
65460;DHT22;52058;49.822;6.754;2023-02-28T06:22:21;-3.67;95.42
65460;DHT22;52058;49.822;6.754;2023-02-28T06:24:49;-3.65;95.60
65460;DHT22;52058;49.822;6.754;2023-02-28T06:27:16;-3.56;95.58
65460;DHT22;52058;49.822;6.754;2023-02-28T06:29:42;-3.59;95.38
65460;DHT22;52058;49.822;6.754;2023-02-28T06:32:09;-3.59;95.32
65460;DHT22;52058;49.822;6.754;2023-02-28T06:34:35;-3.56;95.31
65460;DHT22;52058;49.822;6.754;2023-02-28T06:37:02;-3.52;95.32
65460;DHT22;52058;49.822;6.754;2023-02-28T06:39:29;-3.49;95.21
65460;DHT22;52058;49.822;6.754;2023-02-28T06:41:57;-3.53;95.12
65460;DHT22;52058;49.822;6.754;2023-02-28T06:44:24;-3.48;95.11
65460;DHT22;52058;49.822;6.754;2023-02-28T06:46:50;-3.51;95.06
65460;DHT22;52058;49.822;6.754;2023-02-28T06:49:17;-3.45;95.15
65460;DHT22;52058;49.822;6.754;2023-02-28T06:51:44;-3.41;95.33
65460;DHT22;52058;49.822;6.754;2023-02-28T06:54:11;-3.36;95.30
65460;DHT22;52058;49.822;6.754;2023-02-28T06:56:38;-3.24;95.29
65460;DHT22;52058;49.822;6.754;2023-02-28T06:59:06;-3.22;95.29
65460;DHT22;52058;49.822;6.754;2023-02-28T07:01:33;-3.19;95.20
65460;DHT22;52058;49.822;6.754;2023-02-28T07:04:00;-3.12;95.06
65460;DHT22;52058;49.822;6.754;2023-02-28T07:06:27;-3.08;94.79
65460;DHT22;52058;49.822;6.754;2023-02-28T07:08:54;-3.07;94.83
65460;DHT22;52058;49.822;6.754;2023-02-28T07:11:21;-3.03;94.78
65460;DHT22;52058;49.822;6.754;2023-02-28T07:13:51;-3.05;94.71
65460;DHT22;52058;49.822;6.754;2023-02-28T07:16:18;-3.03;94.62
65460;DHT22;52058;49.822;6.754;2023-02-28T07:18:45;-3.00;94.60
65460;DHT22;52058;49.822;6.754;2023-02-28T07:21:12;-2.98;94.39
65460;DHT22;52058;49.822;6.754;2023-02-28T07:23:39;-2.93;94.31
65460;DHT22;52058;49.822;6.754;2023-02-28T07:26:06;-2.93;94.17
65460;DHT22;52058;49.822;6.754;2023-02-28T07:28:33;-2.87;94.27
65460;DHT22;52058;49.822;6.754;2023-02-28T07:31:03;-2.80;94.04
65460;DHT22;52058;49.822;6.754;2023-02-28T07:33:31;-2.64;93.83
65460;DHT22;52058;49.822;6.754;2023-02-28T07:36:03;-2.50;93.46
65460;DHT22;52058;49.822;6.754;2023-02-28T07:38:30;-2.45;93.43
65460;DHT22;52058;49.822;6.754;2023-02-28T07:40:56;-2.31;93.03
65460;DHT22;52058;49.822;6.754;2023-02-28T07:43:23;-2.28;92.82
65460;DHT22;52058;49.822;6.754;2023-02-28T07:45:49;-2.08;92.32
65460;DHT22;52058;49.822;6.754;2023-02-28T07:48:16;-1.99;91.98
65460;DHT22;52058;49.822;6.754;2023-02-28T07:50:44;-1.85;91.28
65460;DHT22;52058;49.822;6.754;2023-02-28T07:53:13;-1.77;91.19
65460;DHT22;52058;49.822;6.754;2023-02-28T07:55:39;-1.71;90.87
65460;DHT22;52058;49.822;6.754;2023-02-28T07:58:06;-1.62;90.59
65460;DHT22;52058;49.822;6.754;2023-02-28T08:00:32;-1.52;90.00
65460;DHT22;52058;49.822;6.754;2023-02-28T08:02:59;-1.34;89.39
65460;DHT22;52058;49.822;6.754;2023-02-28T08:05:25;-1.22;88.99
65460;DHT22;52058;49.822;6.754;2023-02-28T08:07:53;-1.15;88.47
65460;DHT22;52058;49.822;6.754;2023-02-28T08:10:20;-1.04;88.16
65460;DHT22;52058;49.822;6.754;2023-02-28T08:12:47;-0.91;87.10
65460;DHT22;52058;49.822;6.754;2023-02-28T08:15:13;-0.80;86.45
65460;DHT22;52058;49.822;6.754;2023-02-28T08:17:40;-0.70;86.15
65460;DHT22;52058;49.822;6.754;2023-02-28T08:20:07;-0.64;86.06
65460;DHT22;52058;49.822;6.754;2023-02-28T08:22:35;-0.53;85.27
65460;DHT22;52058;49.822;6.754;2023-02-28T08:25:04;-0.43;84.83
65460;DHT22;52058;49.822;6.754;2023-02-28T08:27:32;-0.34;84.51
65460;DHT22;52058;49.822;6.754;2023-02-28T08:29:58;-0.27;83.86
65460;DHT22;52058;49.822;6.754;2023-02-28T08:32:25;-0.19;83.76
65460;DHT22;52058;49.822;6.754;2023-02-28T08:34:51;-0.08;83.38
65460;DHT22;52058;49.822;6.754;2023-02-28T08:37:18;0.01;82.61
65460;DHT22;52058;49.822;6.754;2023-02-28T08:39:45;0.12;82.63
65460;DHT22;52058;49.822;6.754;2023-02-28T08:42:13;0.22;81.19
65460;DHT22;52058;49.822;6.754;2023-02-28T08:44:40;0.26;80.22
65460;DHT22;52058;49.822;6.754;2023-02-28T08:47:06;0.35;79.82
65460;DHT22;52058;49.822;6.754;2023-02-28T08:49:33;0.50;79.26
65460;DHT22;52058;49.822;6.754;2023-02-28T08:51:59;0.46;78.51
65460;DHT22;52058;49.822;6.754;2023-02-28T08:54:26;0.48;78.69
65460;DHT22;52058;49.822;6.754;2023-02-28T08:56:55;0.46;78.20
65460;DHT22;52058;49.822;6.754;2023-02-28T08:59:23;0.52;77.78
65460;DHT22;52058;49.822;6.754;2023-02-28T09:01:50;0.49;77.22
65460;DHT22;52058;49.822;6.754;2023-02-28T09:04:16;0.56;76.85
65460;DHT22;52058;49.822;6.754;2023-02-28T09:06:43;0.64;77.30
65460;DHT22;52058;49.822;6.754;2023-02-28T09:09:10;0.84;75.92
65460;DHT22;52058;49.822;6.754;2023-02-28T09:11:37;1.04;75.20
65460;DHT22;52058;49.822;6.754;2023-02-28T09:14:03;1.25;75.08
65460;DHT22;52058;49.822;6.754;2023-02-28T09:16:32;1.39;73.60
65460;DHT22;52058;49.822;6.754;2023-02-28T09:18:59;1.63;72.93
65460;DHT22;52058;49.822;6.754;2023-02-28T09:21:26;1.80;72.11
65460;DHT22;52058;49.822;6.754;2023-02-28T09:23:53;1.96;71.04
65460;DHT22;52058;49.822;6.754;2023-02-28T09:26:21;2.11;71.14
65460;DHT22;52058;49.822;6.754;2023-02-28T09:28:49;2.28;70.18
65460;DHT22;52058;49.822;6.754;2023-02-28T09:31:17;2.34;69.20
65460;DHT22;52058;49.822;6.754;2023-02-28T09:33:48;2.22;70.48
65460;DHT22;52058;49.822;6.754;2023-02-28T09:36:15;1.97;70.26
65460;DHT22;52058;49.822;6.754;2023-02-28T09:38:41;1.99;70.46
65460;DHT22;52058;49.822;6.754;2023-02-28T09:41:13;2.00;70.73
65460;DHT22;52058;49.822;6.754;2023-02-28T09:43:44;2.04;70.35
65460;DHT22;52058;49.822;6.754;2023-02-28T09:46:21;2.14;68.60
65460;DHT22;52058;49.822;6.754;2023-02-28T09:48:54;2.35;68.02
65460;DHT22;52058;49.822;6.754;2023-02-28T09:51:34;2.56;66.85
65460;DHT22;52058;49.822;6.754;2023-02-28T09:54:04;2.73;67.01
65460;DHT22;52058;49.822;6.754;2023-02-28T09:56:35;2.92;66.70
65460;DHT22;52058;49.822;6.754;2023-02-28T09:59:10;2.92;65.81
65460;DHT22;52058;49.822;6.754;2023-02-28T10:01:44;3.14;65.96
65460;DHT22;52058;49.822;6.754;2023-02-28T10:04:27;3.32;64.42
65460;DHT22;52058;49.822;6.754;2023-02-28T10:07:01;3.52;64.71
65460;DHT22;52058;49.822;6.754;2023-02-28T10:09:31;3.74;64.37
65460;DHT22;52058;49.822;6.754;2023-02-28T10:12:03;3.81;63.70
65460;DHT22;52058;49.822;6.754;2023-02-28T10:14:33;3.92;62.67
65460;DHT22;52058;49.822;6.754;2023-02-28T10:17:03;4.09;62.90
65460;DHT22;52058;49.822;6.754;2023-02-28T10:19:37;4.26;62.52
65460;DHT22;52058;49.822;6.754;2023-02-28T10:22:11;4.06;62.78
65460;DHT22;52058;49.822;6.754;2023-02-28T10:24:40;3.88;62.78
65460;DHT22;52058;49.822;6.754;2023-02-28T10:27:13;3.93;63.11
65460;DHT22;52058;49.822;6.754;2023-02-28T10:29:43;3.95;63.13
65460;DHT22;52058;49.822;6.754;2023-02-28T10:32:14;3.89;62.82
65460;DHT22;52058;49.822;6.754;2023-02-28T10:34:43;4.06;63.14
65460;DHT22;52058;49.822;6.754;2023-02-28T10:37:10;4.26;62.89
65460;DHT22;52058;49.822;6.754;2023-02-28T10:39:39;4.41;62.70
65460;DHT22;52058;49.822;6.754;2023-02-28T10:42:20;4.40;62.28
65460;DHT22;52058;49.822;6.754;2023-02-28T10:44:46;4.32;62.07
65460;DHT22;52058;49.822;6.754;2023-02-28T10:47:15;4.38;62.50
65460;DHT22;52058;49.822;6.754;2023-02-28T10:49:49;4.56;63.04
65460;DHT22;52058;49.822;6.754;2023-02-28T10:52:33;4.34;61.63
65460;DHT22;52058;49.822;6.754;2023-02-28T10:55:18;4.40;60.94
65460;DHT22;52058;49.822;6.754;2023-02-28T10:57:46;4.36;60.56
65460;DHT22;52058;49.822;6.754;2023-02-28T11:00:15;4.53;60.11
65460;DHT22;52058;49.822;6.754;2023-02-28T11:02:42;4.77;60.13
65460;DHT22;52058;49.822;6.754;2023-02-28T11:05:28;4.98;59.50
65460;DHT22;52058;49.822;6.754;2023-02-28T11:07:58;5.02;57.72
65460;DHT22;52058;49.822;6.754;2023-02-28T11:10:28;5.12;56.18
65460;DHT22;52058;49.822;6.754;2023-02-28T11:12:56;5.16;55.71
65460;DHT22;52058;49.822;6.754;2023-02-28T11:15:25;5.67;56.12
65460;DHT22;52058;49.822;6.754;2023-02-28T11:17:55;5.68;55.30
65460;DHT22;52058;49.822;6.754;2023-02-28T11:20:24;5.79;54.08
65460;DHT22;52058;49.822;6.754;2023-02-28T11:22:54;5.98;53.76
65460;DHT22;52058;49.822;6.754;2023-02-28T11:25:23;6.11;52.94
65460;DHT22;52058;49.822;6.754;2023-02-28T11:27:52;6.15;53.02
65460;DHT22;52058;49.822;6.754;2023-02-28T11:30:40;6.14;52.65
65460;DHT22;52058;49.822;6.754;2023-02-28T11:33:27;6.19;53.00
65460;DHT22;52058;49.822;6.754;2023-02-28T11:35:56;5.94;52.23
65460;DHT22;52058;49.822;6.754;2023-02-28T11:38:26;6.12;53.53
65460;DHT22;52058;49.822;6.754;2023-02-28T11:41:05;6.06;52.58
65460;DHT22;52058;49.822;6.754;2023-02-28T11:43:50;6.39;52.34
65460;DHT22;52058;49.822;6.754;2023-02-28T11:46:27;6.14;52.56
65460;DHT22;52058;49.822;6.754;2023-02-28T11:49:04;6.21;51.97
65460;DHT22;52058;49.822;6.754;2023-02-28T11:51:34;6.45;51.88
65460;DHT22;52058;49.822;6.754;2023-02-28T11:54:23;6.33;51.47
65460;DHT22;52058;49.822;6.754;2023-02-28T11:56:55;6.40;50.79
65460;DHT22;52058;49.822;6.754;2023-02-28T11:59:48;6.57;51.04
65460;DHT22;52058;49.822;6.754;2023-02-28T12:02:25;6.72;50.75
65460;DHT22;52058;49.822;6.754;2023-02-28T12:05:10;6.76;50.84
65460;DHT22;52058;49.822;6.754;2023-02-28T12:07:47;6.87;50.70
65460;DHT22;52058;49.822;6.754;2023-02-28T12:10:21;6.94;49.87
65460;DHT22;52058;49.822;6.754;2023-02-28T12:13:00;7.31;49.75
65460;DHT22;52058;49.822;6.754;2023-02-28T12:18:36;7.58;49.88
65460;DHT22;52058;49.822;6.754;2023-02-28T12:21:13;7.36;48.96
65460;DHT22;52058;49.822;6.754;2023-02-28T12:23:54;7.43;48.50
65460;DHT22;52058;49.822;6.754;2023-02-28T12:26:34;7.18;48.12
65460;DHT22;52058;49.822;6.754;2023-02-28T12:29:09;7.32;48.77
65460;DHT22;52058;49.822;6.754;2023-02-28T12:31:39;7.18;49.10
65460;DHT22;52058;49.822;6.754;2023-02-28T12:34:11;6.81;49.47
65460;DHT22;52058;49.822;6.754;2023-02-28T12:36:39;6.69;49.42
65460;DHT22;52058;49.822;6.754;2023-02-28T12:39:10;6.73;49.66
65460;DHT22;52058;49.822;6.754;2023-02-28T12:41:42;6.85;49.48
65460;DHT22;52058;49.822;6.754;2023-02-28T12:44:14;6.66;48.92
65460;DHT22;52058;49.822;6.754;2023-02-28T12:46:47;6.76;49.34
65460;DHT22;52058;49.822;6.754;2023-02-28T12:49:18;6.54;49.66
65460;DHT22;52058;49.822;6.754;2023-02-28T12:51:47;6.32;49.55
65460;DHT22;52058;49.822;6.754;2023-02-28T12:54:19;6.16;50.12
65460;DHT22;52058;49.822;6.754;2023-02-28T12:56:54;6.06;50.22
65460;DHT22;52058;49.822;6.754;2023-02-28T12:59:26;5.97;50.70
65460;DHT22;52058;49.822;6.754;2023-02-28T13:02:33;6.08;51.29
65460;DHT22;52058;49.822;6.754;2023-02-28T13:05:38;6.02;51.98
65460;DHT22;52058;49.822;6.754;2023-02-28T13:08:39;6.19;52.05
65460;DHT22;52058;49.822;6.754;2023-02-28T13:11:23;6.18;51.96
65460;DHT22;52058;49.822;6.754;2023-02-28T13:13:58;6.15;51.13
65460;DHT22;52058;49.822;6.754;2023-02-28T13:16:25;6.25;50.99
65460;DHT22;52058;49.822;6.754;2023-02-28T13:18:52;6.36;50.51
65460;DHT22;52058;49.822;6.754;2023-02-28T13:21:23;6.46;50.37
65460;DHT22;52058;49.822;6.754;2023-02-28T13:23:59;6.46;50.33
65460;DHT22;52058;49.822;6.754;2023-02-28T13:29:34;6.98;49.74
65460;DHT22;52058;49.822;6.754;2023-02-28T13:32:32;7.36;48.52
65460;DHT22;52058;49.822;6.754;2023-02-28T13:38:25;9.20;45.76
65460;DHT22;52058;49.822;6.754;2023-02-28T13:44:00;13.45;38.94
65460;DHT22;52058;49.822;6.754;2023-02-28T13:46:29;14.72;36.69
65460;DHT22;52058;49.822;6.754;2023-02-28T13:48:56;16.53;34.92
65460;DHT22;52058;49.822;6.754;2023-02-28T13:51:44;16.35;34.07
65460;DHT22;52058;49.822;6.754;2023-02-28T13:54:36;15.98;34.88
65460;DHT22;52058;49.822;6.754;2023-02-28T13:57:14;15.56;34.75
65460;DHT22;52058;49.822;6.754;2023-02-28T13:59:52;15.94;33.87
65460;DHT22;52058;49.822;6.754;2023-02-28T14:02:44;17.03;32.89
65460;DHT22;52058;49.822;6.754;2023-02-28T14:05:17;17.20;32.07
65460;DHT22;52058;49.822;6.754;2023-02-28T14:07:47;16.25;33.16
65460;DHT22;52058;49.822;6.754;2023-02-28T14:10:24;15.28;34.14
65460;DHT22;52058;49.822;6.754;2023-02-28T14:12:59;16.53;33.67
65460;DHT22;52058;49.822;6.754;2023-02-28T14:15:31;17.02;32.73
65460;DHT22;52058;49.822;6.754;2023-02-28T14:18:03;16.29;33.41
65460;DHT22;52058;49.822;6.754;2023-02-28T14:20:33;16.14;33.36
65460;DHT22;52058;49.822;6.754;2023-02-28T14:23:06;17.17;32.50
65460;DHT22;52058;49.822;6.754;2023-02-28T14:25:39;16.51;33.29
65460;DHT22;52058;49.822;6.754;2023-02-28T14:28:13;16.18;33.57
65460;DHT22;52058;49.822;6.754;2023-02-28T14:31:00;15.63;34.46
65460;DHT22;52058;49.822;6.754;2023-02-28T14:33:39;14.75;35.25
65460;DHT22;52058;49.822;6.754;2023-02-28T14:36:17;13.27;36.71
65460;DHT22;52058;49.822;6.754;2023-02-28T14:38:47;13.25;37.38
65460;DHT22;52058;49.822;6.754;2023-02-28T14:41:20;12.26;39.20
65460;DHT22;52058;49.822;6.754;2023-02-28T14:43:52;12.08;39.46
65460;DHT22;52058;49.822;6.754;2023-02-28T14:46:20;11.66;39.71
65460;DHT22;52058;49.822;6.754;2023-02-28T14:48:49;11.65;40.43
65460;DHT22;52058;49.822;6.754;2023-02-28T14:51:20;11.20;40.63
65460;DHT22;52058;49.822;6.754;2023-02-28T14:53:49;10.84;41.71
65460;DHT22;52058;49.822;6.754;2023-02-28T14:56:23;10.81;42.12
65460;DHT22;52058;49.822;6.754;2023-02-28T14:58:52;10.53;42.22
65460;DHT22;52058;49.822;6.754;2023-02-28T15:01:20;10.51;42.15
65460;DHT22;52058;49.822;6.754;2023-02-28T15:03:57;10.17;42.65
65460;DHT22;52058;49.822;6.754;2023-02-28T15:06:23;9.98;43.17
65460;DHT22;52058;49.822;6.754;2023-02-28T15:09:13;9.71;43.86
65460;DHT22;52058;49.822;6.754;2023-02-28T15:11:40;9.50;43.87
65460;DHT22;52058;49.822;6.754;2023-02-28T15:14:15;9.41;43.99
65460;DHT22;52058;49.822;6.754;2023-02-28T15:16:44;9.28;44.36
65460;DHT22;52058;49.822;6.754;2023-02-28T15:19:14;9.09;45.03
65460;DHT22;52058;49.822;6.754;2023-02-28T15:21:45;8.87;45.15
65460;DHT22;52058;49.822;6.754;2023-02-28T15:24:15;8.87;45.60
65460;DHT22;52058;49.822;6.754;2023-02-28T15:26:51;8.75;45.34
65460;DHT22;52058;49.822;6.754;2023-02-28T15:29:21;8.75;45.21
65460;DHT22;52058;49.822;6.754;2023-02-28T15:31:51;8.38;45.33
65460;DHT22;52058;49.822;6.754;2023-02-28T15:34:27;8.73;45.54
65460;DHT22;52058;49.822;6.754;2023-02-28T15:36:55;9.07;45.43
65460;DHT22;52058;49.822;6.754;2023-02-28T15:39:24;8.84;45.23
65460;DHT22;52058;49.822;6.754;2023-02-28T15:41:54;8.68;45.80
65460;DHT22;52058;49.822;6.754;2023-02-28T15:44:35;8.37;46.22
65460;DHT22;52058;49.822;6.754;2023-02-28T15:47:04;8.14;46.53
65460;DHT22;52058;49.822;6.754;2023-02-28T15:49:39;7.74;47.15
65460;DHT22;52058;49.822;6.754;2023-02-28T15:52:10;7.65;47.95
65460;DHT22;52058;49.822;6.754;2023-02-28T15:54:38;7.67;48.41
65460;DHT22;52058;49.822;6.754;2023-02-28T15:57:06;7.51;48.08
65460;DHT22;52058;49.822;6.754;2023-02-28T15:59:35;7.25;48.30
65460;DHT22;52058;49.822;6.754;2023-02-28T16:02:13;7.00;49.77
65460;DHT22;52058;49.822;6.754;2023-02-28T16:04:58;6.77;50.17
65460;DHT22;52058;49.822;6.754;2023-02-28T16:07:24;6.60;50.63
65460;DHT22;52058;49.822;6.754;2023-02-28T16:09:51;6.37;50.31
65460;DHT22;52058;49.822;6.754;2023-02-28T16:12:19;6.22;50.92
65460;DHT22;52058;49.822;6.754;2023-02-28T16:14:52;6.11;51.85
65460;DHT22;52058;49.822;6.754;2023-02-28T16:17:21;5.98;51.80